Terminal Aerodrome Forecast
Issued by NWS Amarillo, TX

Home | Current Version | Previous Version | Text Only | Print | Product List | Glossary On
Versions: 1 2 3 4 5 6 7 8 9 10 11 12 13 14 15 16 17 18
013
FTUS44 KAMA 252109 AAA
TAFGUY
TAF AMD
KGUY 252109Z 2521/2618 01010KT P6SM VCSH SCT007 OVC060
     FM252300 01014KT 5SM BR BKN008 OVC015
     FM260600 01015KT 4SM BR VCSH BKN007 OVC012 PROB30 2610/2616 1SM
      -RA BR BKN004 OVC006=

USA.gov is the U.S. government's official web portal to all federal, state and local government web resources and services.